Time;durP1;ratioP1;P1;durP2;ratioP2;P2;SDS_P1;SDS_P2;PMS_P1;PMS_P2;Temp;Humidity;BMP_temperature;BMP_pressure;BME280_temperature;BME280_humidity;BME280_pressure;Samples;Min_cycle;Max_cycle;Signal;HPM_P1;HPM_P2
2022/10/17 00:01:19;;;;;;;4.10;3.20;;;15.60;99.90;;;;;;5075094;28;20449;-86
2022/10/17 00:03:46;;;;;;;5.70;3.80;;;15.60;99.90;;;;;;5074855;28;20462;-86
2022/10/17 00:06:15;;;;;;;3.90;3.37;;;15.60;99.90;;;;;;5074922;28;20454;-86
2022/10/17 00:08:43;;;;;;;4.10;3.20;;;15.60;99.90;;;;;;5074582;28;20457;-86
2022/10/17 00:11:16;;;;;;;3.37;3.07;;;15.60;99.90;;;;;;5074773;28;20477;-86
2022/10/17 00:13:44;;;;;;;3.10;2.80;;;15.50;99.90;;;;;;5074519;28;20489;-85
2022/10/17 00:16:11;;;;;;;3.37;3.00;;;15.50;99.90;;;;;;5074013;28;20490;-86
2022/10/17 00:18:38;;;;;;;4.03;3.47;;;15.50;99.90;;;;;;5074664;28;20485;-86
2022/10/17 00:21:05;;;;;;;6.07;3.77;;;15.50;99.90;;;;;;5074694;28;20542;-86
2022/10/17 00:23:33;;;;;;;4.40;3.00;;;15.50;99.90;;;;;;5074578;28;20457;-85
2022/10/17 00:26:01;;;;;;;3.07;2.77;;;15.50;99.90;;;;;;5074323;28;20455;-85
2022/10/17 00:28:27;;;;;;;4.20;3.70;;;15.50;99.90;;;;;;5074207;28;20449;-86
2022/10/17 00:31:00;;;;;;;5.20;3.13;;;15.40;99.90;;;;;;5074583;28;20449;-86
2022/10/17 00:33:28;;;;;;;4.00;3.60;;;15.40;99.90;;;;;;5074204;28;20491;-86
2022/10/17 00:36:04;;;;;;;3.73;3.33;;;15.40;99.90;;;;;;5074393;28;20461;-86
2022/10/17 00:38:30;;;;;;;5.53;3.53;;;15.40;99.90;;;;;;5073725;28;20539;-86
2022/10/17 00:40:57;;;;;;;7.03;3.50;;;15.40;99.90;;;;;;5074254;28;20454;-87
2022/10/17 00:43:25;;;;;;;4.40;3.23;;;15.40;99.90;;;;;;5074158;28;20476;-86
2022/10/17 00:45:52;;;;;;;3.97;3.50;;;15.30;99.90;;;;;;5074321;28;20485;-86
2022/10/17 00:48:22;;;;;;;4.93;3.50;;;15.30;99.90;;;;;;5073821;28;20451;-86
2022/10/17 00:50:50;;;;;;;5.00;3.57;;;15.30;99.90;;;;;;5073097;28;20969;-87
2022/10/17 00:53:18;;;;;;;8.40;3.33;;;15.30;99.90;;;;;;5074048;28;20492;-86
2022/10/17 00:55:49;;;;;;;7.10;6.50;;;15.30;99.90;;;;;;5073887;28;20480;-87
2022/10/17 00:58:17;;;;;;;3.70;3.00;;;15.30;99.90;;;;;;5070782;28;20488;-86
2022/10/17 01:00:46;;;;;;;3.47;3.13;;;15.30;99.90;;;;;;5073712;28;20443;-86
2022/10/17 01:03:12;;;;;;;3.87;2.87;;;15.30;99.90;;;;;;5073986;28;21038;-87
2022/10/17 01:05:41;;;;;;;4.17;3.60;;;15.30;99.90;;;;;;5073257;28;20449;-86
2022/10/17 01:08:09;;;;;;;7.80;3.80;;;15.30;99.90;;;;;;5074269;28;20446;-86
2022/10/17 01:10:45;;;;;;;5.60;3.30;;;15.30;99.90;;;;;;5073870;28;20457;-86
2022/10/17 01:13:19;;;;;;;5.77;3.23;;;15.30;99.90;;;;;;5074296;28;20486;-86
2022/10/17 01:15:57;;;;;;;3.80;3.40;;;15.30;99.90;;;;;;5074001;28;20447;-86
2022/10/17 01:18:36;;;;;;;3.80;3.40;;;15.30;99.90;;;;;;5075341;28;20488;-86
2022/10/17 01:21:38;;;;;;;5.57;3.60;;;15.30;99.90;;;;;;5097411;28;20508;-86
2022/10/17 01:24:33;;;;;;;3.83;3.20;;;15.30;99.90;;;;;;5077546;28;20438;-86
2022/10/17 01:27:29;;;;;;;5.30;4.20;;;15.30;99.90;;;;;;5068257;28;20444;-86
2022/10/17 01:30:47;;;;;;;5.50;3.97;;;15.30;99.90;;;;;;5072771;28;20452;-86
2022/10/17 01:33:22;;;;;;;7.03;3.20;;;15.30;99.90;;;;;;5071798;28;20470;-86
2022/10/17 01:35:55;;;;;;;5.70;3.43;;;15.30;99.90;;;;;;5073373;28;20831;-86
2022/10/17 01:38:24;;;;;;;5.90;3.50;;;15.30;99.90;;;;;;5073392;28;20487;-86
2022/10/17 01:40:57;;;;;;;3.93;3.30;;;15.20;99.90;;;;;;5073849;28;20491;-86
2022/10/17 01:43:29;;;;;;;6.20;4.10;;;15.30;99.90;;;;;;5073620;28;20474;-86
2022/10/17 01:46:01;;;;;;;7.20;3.70;;;15.30;99.90;;;;;;5065296;28;20440;-86
2022/10/17 01:48:36;;;;;;;4.83;3.50;;;15.20;99.90;;;;;;5073384;28;20454;-86
2022/10/17 01:51:08;;;;;;;4.20;3.67;;;15.20;99.90;;;;;;5053575;28;20459;-85
2022/10/17 01:53:39;;;;;;;4.80;4.17;;;15.30;99.90;;;;;;5053163;28;20464;-86
2022/10/17 01:56:09;;;;;;;4.83;3.67;;;15.20;99.90;;;;;;5066030;28;20460;-85
2022/10/17 01:58:41;;;;;;;4.07;3.40;;;15.30;99.90;;;;;;5072912;28;20487;-85
2022/10/17 02:01:11;;;;;;;4.97;3.33;;;15.30;99.90;;;;;;5072231;28;20453;-86
2022/10/17 02:03:42;;;;;;;3.90;3.43;;;15.30;99.90;;;;;;5072765;28;20458;-87
2022/10/17 02:06:09;;;;;;;3.83;3.53;;;15.30;99.90;;;;;;5072236;28;20456;-85
2022/10/17 02:08:42;;;;;;;3.87;3.43;;;15.30;99.90;;;;;;5072642;28;20452;-87
2022/10/17 02:11:13;;;;;;;4.30;3.90;;;15.30;99.90;;;;;;5092189;28;20512;-86
2022/10/17 02:13:54;;;;;;;4.47;3.67;;;15.20;99.90;;;;;;5109885;28;20448;-86
2022/10/17 02:16:33;;;;;;;4.93;3.60;;;15.30;99.90;;;;;;5090760;28;20448;-86
2022/10/17 02:19:26;;;;;;;8.23;4.03;;;15.30;99.90;;;;;;5072047;28;20487;-87
2022/10/17 02:22:04;;;;;;;4.50;3.50;;;15.30;99.90;;;;;;5052832;28;20474;-85
2022/10/17 02:24:40;;;;;;;4.10;3.63;;;15.30;99.90;;;;;;5055756;28;20451;-85
2022/10/17 02:27:14;;;;;;;4.17;3.67;;;15.30;99.90;;;;;;5052605;28;20461;-86
2022/10/17 02:29:47;;;;;;;5.20;3.20;;;15.30;99.90;;;;;;5056176;28;20974;-86
2022/10/17 02:32:20;;;;;;;5.10;3.73;;;15.30;99.90;;;;;;5072754;28;20505;-86
2022/10/17 02:34:50;;;;;;;4.10;3.67;;;15.30;99.90;;;;;;5072172;28;20452;-85
2022/10/17 02:37:22;;;;;;;3.90;3.50;;;15.30;99.90;;;;;;5073223;28;20466;-85
2022/10/17 02:39:50;;;;;;;3.90;3.40;;;15.30;99.90;;;;;;5072328;28;20863;-88
2022/10/17 02:42:19;;;;;;;4.97;3.50;;;15.30;99.90;;;;;;5072554;28;20841;-86
2022/10/17 02:44:47;;;;;;;3.60;3.30;;;15.30;99.90;;;;;;5071739;28;20453;-85
2022/10/17 02:47:22;;;;;;;7.43;3.30;;;15.30;99.90;;;;;;5072101;28;20456;-87
2022/10/17 02:49:52;;;;;;;4.87;3.47;;;15.20;99.90;;;;;;5071961;28;20456;-86
2022/10/17 02:52:25;;;;;;;5.30;3.23;;;15.30;99.90;;;;;;5072337;28;20478;-87
2022/10/17 02:54:57;;;;;;;3.40;3.10;;;15.20;99.90;;;;;;5071886;28;20456;-85
2022/10/17 02:57:30;;;;;;;8.50;4.50;;;15.20;99.90;;;;;;5072148;28;20455;-86
2022/10/17 03:00:00;;;;;;;4.63;3.53;;;15.20;99.90;;;;;;5071684;28;20489;-87
2022/10/17 03:02:27;;;;;;;7.73;3.53;;;15.20;99.90;;;;;;5072372;28;20481;-86
2022/10/17 03:04:55;;;;;;;4.50;4.10;;;15.20;99.90;;;;;;5071497;28;20452;-87
2022/10/17 03:07:22;;;;;;;4.20;3.63;;;15.20;99.90;;;;;;5072317;28;20455;-85
2022/10/17 03:09:49;;;;;;;5.50;3.67;;;15.20;99.90;;;;;;5071809;28;20452;-87
2022/10/17 03:12:16;;;;;;;7.20;6.50;;;15.20;99.90;;;;;;5072050;28;20494;-85
2022/10/17 03:14:43;;;;;;;4.10;3.67;;;15.20;99.90;;;;;;5072045;28;20462;-87
2022/10/17 03:17:09;;;;;;;3.70;3.30;;;15.20;99.90;;;;;;5072707;28;20454;-85
2022/10/17 03:19:36;;;;;;;3.83;3.50;;;15.20;99.90;;;;;;5072464;28;20480;-86
2022/10/17 03:22:04;;;;;;;4.47;4.00;;;15.20;99.90;;;;;;5073955;28;20476;-86
2022/10/17 03:24:31;;;;;;;3.73;3.40;;;15.20;99.90;;;;;;5071663;28;20803;-87
2022/10/17 03:26:58;;;;;;;3.63;3.20;;;15.20;99.90;;;;;;5088534;22;20578;-79
2022/10/17 03:29:25;;;;;;;8.63;4.23;;;15.20;99.90;;;;;;5061238;28;20530;-82
2022/10/17 03:31:52;;;;;;;5.63;4.00;;;15.20;99.90;;;;;;5064071;28;20506;-82
2022/10/17 03:34:18;;;;;;;5.20;3.80;;;15.20;99.90;;;;;;5064657;28;20547;-82
2022/10/17 03:36:46;;;;;;;11.73;3.93;;;15.20;99.90;;;;;;5064031;28;20479;-83
2022/10/17 03:39:14;;;;;;;4.70;4.30;;;15.20;99.90;;;;;;5063299;28;20485;-82
2022/10/17 03:41:41;;;;;;;4.17;3.33;;;15.20;99.90;;;;;;5064606;28;20524;-80
2022/10/17 03:44:07;;;;;;;6.40;4.07;;;15.20;99.90;;;;;;5065154;28;20460;-82
2022/10/17 03:46:34;;;;;;;3.60;3.30;;;15.20;99.90;;;;;;5069337;28;20552;-81
2022/10/17 03:49:01;;;;;;;6.70;3.83;;;15.20;99.90;;;;;;5063233;28;20904;-83
2022/10/17 03:51:28;;;;;;;5.47;4.40;;;15.30;99.90;;;;;;5064604;28;20445;-83
2022/10/17 03:53:55;;;;;;;5.93;4.03;;;15.20;99.90;;;;;;5063295;28;20892;-83
2022/10/17 03:56:25;;;;;;;6.93;4.13;;;15.30;99.90;;;;;;5063265;28;20545;-83
2022/10/17 03:58:52;;;;;;;5.63;5.03;;;15.30;99.90;;;;;;5062425;28;20454;-81
2022/10/17 04:01:19;;;;;;;5.90;3.80;;;15.30;99.90;;;;;;5062239;28;20454;-83
2022/10/17 04:03:49;;;;;;;5.53;3.73;;;15.30;99.90;;;;;;5061484;28;20455;-83
2022/10/17 04:06:16;;;;;;;4.33;3.50;;;15.30;99.90;;;;;;5060597;28;20484;-83
2022/10/17 04:08:43;;;;;;;5.13;4.23;;;15.30;99.90;;;;;;5061622;28;20463;-83
2022/10/17 04:11:13;;;;;;;5.60;4.00;;;15.40;99.90;;;;;;5055800;28;20459;-82
2022/10/17 04:13:42;;;;;;;5.07;4.17;;;15.40;99.90;;;;;;5060445;28;21652;-82
2022/10/17 04:16:12;;;;;;;4.20;3.60;;;15.40;99.90;;;;;;5062455;28;20547;-82
2022/10/17 04:18:39;;;;;;;8.47;5.00;;;15.40;99.90;;;;;;5061820;28;20983;-82
2022/10/17 04:21:07;;;;;;;4.30;3.87;;;15.40;99.90;;;;;;5057697;28;20485;-82
2022/10/17 04:23:35;;;;;;;4.40;3.87;;;15.40;99.90;;;;;;5061715;28;20483;-85
2022/10/17 04:26:03;;;;;;;5.37;3.93;;;15.40;99.90;;;;;;5061411;28;20460;-82
2022/10/17 04:28:30;;;;;;;7.67;4.47;;;15.40;99.90;;;;;;5065722;28;20514;-83
2022/10/17 04:30:59;;;;;;;4.40;3.73;;;15.30;99.90;;;;;;5065630;28;20459;-84
2022/10/17 04:33:26;;;;;;;4.73;3.60;;;15.40;99.90;;;;;;5064812;28;21002;-82
2022/10/17 04:35:57;;;;;;;5.13;4.30;;;15.40;99.90;;;;;;5066158;28;20454;-84
2022/10/17 04:38:24;;;;;;;7.10;4.13;;;15.40;99.90;;;;;;5065256;28;20476;-83
2022/10/17 04:40:51;;;;;;;5.57;3.83;;;15.40;99.90;;;;;;5066291;28;20552;-84
2022/10/17 04:43:18;;;;;;;5.17;4.23;;;15.50;99.90;;;;;;5068962;28;20526;-83
2022/10/17 04:45:45;;;;;;;5.77;4.10;;;15.50;99.90;;;;;;5063976;28;20515;-83
2022/10/17 04:48:13;;;;;;;5.43;3.70;;;15.50;99.90;;;;;;5065418;28;20986;-84
2022/10/17 04:50:39;;;;;;;6.10;4.27;;;15.50;99.90;;;;;;5065335;28;20543;-82
2022/10/17 04:53:06;;;;;;;6.37;4.73;;;15.50;99.90;;;;;;5065468;28;20462;-83
2022/10/17 04:55:38;;;;;;;5.90;4.23;;;15.60;99.90;;;;;;5065256;28;20460;-83
2022/10/17 04:58:05;;;;;;;4.23;3.83;;;15.50;99.90;;;;;;5064825;28;20486;-82
2022/10/17 05:00:31;;;;;;;5.00;4.23;;;15.60;99.90;;;;;;5066767;28;20597;-83
2022/10/17 05:02:58;;;;;;;9.50;4.20;;;15.60;99.90;;;;;;5064384;28;20485;-82
2022/10/17 05:05:26;;;;;;;5.27;4.27;;;15.60;99.90;;;;;;5065325;28;20522;-84
2022/10/17 05:07:53;;;;;;;5.20;3.90;;;15.50;99.90;;;;;;5063156;28;20471;-83
2022/10/17 05:10:20;;;;;;;10.33;4.67;;;15.50;99.90;;;;;;5066106;28;20461;-83
2022/10/17 05:12:47;;;;;;;6.37;4.67;;;15.50;99.90;;;;;;5064355;28;20449;-84
2022/10/17 05:15:14;;;;;;;9.00;4.90;;;15.50;99.90;;;;;;5064392;28;20478;-84
2022/10/17 05:17:41;;;;;;;6.27;5.40;;;15.50;99.90;;;;;;5059224;28;20591;-82
2022/10/17 05:20:09;;;;;;;4.90;4.13;;;15.50;99.90;;;;;;5063311;28;20555;-82
2022/10/17 05:22:39;;;;;;;5.70;4.73;;;15.60;99.90;;;;;;5061829;28;20837;-81
2022/10/17 05:25:07;;;;;;;5.23;4.73;;;15.50;99.90;;;;;;5058090;28;20447;-82
2022/10/17 05:27:34;;;;;;;5.30;4.40;;;15.60;99.90;;;;;;5056084;28;20494;-83
2022/10/17 05:30:01;;;;;;;4.97;4.50;;;15.60;99.90;;;;;;5063294;28;20984;-84
2022/10/17 05:32:28;;;;;;;6.00;4.80;;;15.60;99.90;;;;;;5064580;28;20459;-82
2022/10/17 05:34:54;;;;;;;8.93;6.10;;;15.60;99.90;;;;;;5066337;28;20462;-84
2022/10/17 05:37:21;;;;;;;11.13;5.03;;;15.60;99.90;;;;;;5059860;28;20510;-84
2022/10/17 05:39:49;;;;;;;5.33;4.83;;;15.70;99.90;;;;;;5051843;28;20514;-85
2022/10/17 05:42:16;;;;;;;5.27;4.77;;;15.70;99.90;;;;;;5065491;28;20458;-82
2022/10/17 05:44:43;;;;;;;4.97;4.40;;;15.70;99.90;;;;;;5065456;28;20480;-84
2022/10/17 05:47:10;;;;;;;5.93;4.97;;;15.80;99.90;;;;;;5066204;28;21039;-85
2022/10/17 05:49:37;;;;;;;6.50;5.00;;;15.80;99.90;;;;;;5063672;28;20485;-80
2022/10/17 05:52:04;;;;;;;6.13;4.80;;;15.80;99.90;;;;;;5059332;28;20441;-83
2022/10/17 05:54:31;;;;;;;6.83;4.70;;;15.80;99.90;;;;;;5054914;28;20523;-82
2022/10/17 05:56:59;;;;;;;6.03;4.30;;;15.80;99.90;;;;;;5056243;28;20474;-82
2022/10/17 05:59:26;;;;;;;8.23;5.87;;;15.80;99.90;;;;;;5055904;28;20558;-82
2022/10/17 06:01:54;;;;;;;4.67;4.17;;;15.80;99.90;;;;;;5060003;28;20489;-82
2022/10/17 06:04:21;;;;;;;6.60;4.83;;;15.80;99.90;;;;;;5055170;28;20449;-84
2022/10/17 06:06:47;;;;;;;7.57;5.43;;;15.80;99.90;;;;;;5055551;28;20490;-82
2022/10/17 06:09:14;;;;;;;4.90;4.30;;;15.80;99.90;;;;;;5054008;28;20845;-81
2022/10/17 06:11:41;;;;;;;6.53;4.53;;;15.90;99.90;;;;;;5055661;28;20535;-81
2022/10/17 06:14:09;;;;;;;5.37;4.87;;;15.80;99.90;;;;;;5056505;28;20540;-82
2022/10/17 06:16:36;;;;;;;4.90;4.40;;;15.80;99.90;;;;;;5056002;28;20551;-82
2022/10/17 06:19:03;;;;;;;9.90;5.37;;;15.90;99.90;;;;;;5056552;28;20551;-81
2022/10/17 06:21:33;;;;;;;5.63;4.87;;;15.90;99.90;;;;;;5060660;28;20491;-80
2022/10/17 06:24:00;;;;;;;7.60;5.20;;;15.90;99.90;;;;;;5060628;28;20456;-81
2022/10/17 06:26:26;;;;;;;5.53;4.60;;;15.90;99.90;;;;;;5061038;28;20844;-82
2022/10/17 06:28:54;;;;;;;6.27;5.10;;;15.90;99.90;;;;;;5061591;28;20460;-83
2022/10/17 06:31:22;;;;;;;8.90;5.33;;;15.90;99.90;;;;;;5050450;28;20524;-83
2022/10/17 06:33:49;;;;;;;7.00;5.93;;;16.00;99.90;;;;;;5062695;28;20551;-82
2022/10/17 06:36:16;;;;;;;9.80;4.63;;;16.00;99.90;;;;;;5061954;28;20525;-83
2022/10/17 06:38:43;;;;;;;12.30;4.73;;;16.00;99.90;;;;;;5061275;28;20461;-83
2022/10/17 06:41:13;;;;;;;5.23;4.73;;;16.10;99.90;;;;;;5072894;28;20487;-84
2022/10/17 06:43:42;;;;;;;7.03;5.03;;;16.10;99.90;;;;;;5063480;28;20455;-82
2022/10/17 06:46:09;;;;;;;7.83;4.70;;;16.10;99.90;;;;;;5072741;28;20457;-83
2022/10/17 06:48:37;;;;;;;8.10;4.10;;;16.10;99.90;;;;;;5071661;28;20475;-81
2022/10/17 06:51:06;;;;;;;5.30;4.43;;;16.10;99.90;;;;;;5072160;28;20451;-81
2022/10/17 06:53:34;;;;;;;6.70;4.07;;;16.10;99.90;;;;;;5072029;28;20482;-81
2022/10/17 06:56:03;;;;;;;7.40;6.30;;;16.10;99.90;;;;;;5070885;28;20462;-84
2022/10/17 06:58:30;;;;;;;4.70;4.20;;;16.10;99.90;;;;;;5061509;28;20494;-82
2022/10/17 07:01:01;;;;;;;4.50;4.10;;;16.20;99.90;;;;;;5058783;28;20508;-83
2022/10/17 07:03:28;;;;;;;11.70;5.47;;;16.20;99.90;;;;;;5058799;28;20604;-82
2022/10/17 07:05:57;;;;;;;6.17;4.77;;;16.20;99.90;;;;;;5059740;28;20492;-84
2022/10/17 07:08:24;;;;;;;5.50;5.00;;;16.20;99.90;;;;;;5059146;28;20477;-84
2022/10/17 07:10:51;;;;;;;6.20;4.93;;;16.20;99.90;;;;;;5059373;28;20526;-82
2022/10/17 07:13:18;;;;;;;6.50;5.33;;;16.30;99.90;;;;;;5059329;28;20484;-84
2022/10/17 07:15:46;;;;;;;5.97;5.37;;;16.20;99.90;;;;;;5054672;28;20461;-83
2022/10/17 07:18:13;;;;;;;7.73;5.00;;;16.30;99.90;;;;;;5059754;28;20557;-82
2022/10/17 07:20:40;;;;;;;6.77;4.93;;;16.40;99.90;;;;;;5060651;28;20559;-82
2022/10/17 07:23:08;;;;;;;7.53;6.00;;;16.40;99.90;;;;;;5059867;28;20450;-83
2022/10/17 07:25:36;;;;;;;7.40;5.50;;;16.50;99.90;;;;;;5060112;28;20541;-83
2022/10/17 07:28:03;;;;;;;8.00;5.50;;;16.50;99.90;;;;;;5059526;28;20488;-83
2022/10/17 07:30:30;;;;;;;6.50;5.17;;;16.50;99.90;;;;;;5060283;28;20434;-83
2022/10/17 07:32:56;;;;;;;8.90;5.27;;;16.50;99.90;;;;;;5060669;28;21021;-83
2022/10/17 07:35:23;;;;;;;6.83;5.13;;;16.60;99.90;;;;;;5060169;28;20528;-82
2022/10/17 07:37:50;;;;;;;8.60;5.70;;;16.70;99.90;;;;;;5059349;28;20486;-83
2022/10/17 07:40:18;;;;;;;7.37;5.40;;;16.70;99.90;;;;;;5060024;28;20564;-82
2022/10/17 07:42:45;;;;;;;6.40;4.83;;;16.80;99.90;;;;;;5060014;28;20955;-83
2022/10/17 07:45:12;;;;;;;8.03;5.50;;;16.80;99.90;;;;;;5060185;28;20539;-83
2022/10/17 07:47:39;;;;;;;7.20;5.07;;;16.90;99.90;;;;;;5059632;28;21031;-82
2022/10/17 07:50:06;;;;;;;6.03;5.43;;;16.90;99.90;;;;;;5059965;28;20550;-82
2022/10/17 07:52:33;;;;;;;6.50;5.30;;;17.00;99.90;;;;;;5060912;28;20448;-83
2022/10/17 07:55:00;;;;;;;5.47;4.90;;;17.10;99.90;;;;;;5059371;28;21025;-83
2022/10/17 07:57:28;;;;;;;6.10;5.30;;;17.20;99.90;;;;;;5060492;28;20480;-83
2022/10/17 07:59:55;;;;;;;8.93;5.20;;;17.20;99.90;;;;;;5060618;28;20530;-83
2022/10/17 08:02:24;;;;;;;8.33;5.50;;;17.30;99.90;;;;;;5064539;28;20490;-82
2022/10/17 08:04:51;;;;;;;9.80;5.37;;;17.30;99.90;;;;;;5075426;28;20810;-81
2022/10/17 08:07:18;;;;;;;7.13;4.90;;;17.40;99.90;;;;;;5075498;28;20472;-82
2022/10/17 08:09:45;;;;;;;7.00;5.10;;;17.50;99.90;;;;;;5068793;28;20490;-83
2022/10/17 08:12:14;;;;;;;6.20;4.87;;;17.40;99.90;;;;;;5064074;28;20451;-83
2022/10/17 08:14:43;;;;;;;8.23;4.80;;;17.40;99.90;;;;;;5064240;28;20456;-82
2022/10/17 08:17:10;;;;;;;11.23;5.10;;;17.40;99.90;;;;;;5064015;28;20464;-83
2022/10/17 08:19:39;;;;;;;6.67;5.00;;;17.40;99.90;;;;;;5063907;28;20446;-83
2022/10/17 08:22:06;;;;;;;5.90;5.00;;;17.50;99.90;;;;;;5063352;28;21090;-81
2022/10/17 08:24:33;;;;;;;7.60;5.10;;;17.60;99.90;;;;;;5063602;28;20456;-83
2022/10/17 08:27:00;;;;;;;6.27;5.30;;;17.60;99.90;;;;;;5063833;28;20557;-83
2022/10/17 08:29:27;;;;;;;8.43;5.23;;;17.60;99.90;;;;;;5063028;28;20452;-82
2022/10/17 08:31:55;;;;;;;6.50;4.80;;;17.60;99.90;;;;;;5064692;28;20453;-81
2022/10/17 08:34:22;;;;;;;5.47;4.90;;;17.60;99.90;;;;;;5062128;28;20527;-79
2022/10/17 08:36:48;;;;;;;6.00;4.30;;;17.70;99.90;;;;;;5063047;28;20566;-82
2022/10/17 08:39:15;;;;;;;5.23;4.47;;;17.70;99.90;;;;;;5063926;28;21051;-82
2022/10/17 08:42:01;;;;;;;5.23;4.20;;;17.70;99.90;;;;;;5063361;28;20527;-82
2022/10/17 08:44:42;;;;;;;8.47;4.87;;;17.80;99.90;;;;;;5062829;28;20548;-82
2022/10/17 08:47:14;;;;;;;7.47;5.00;;;17.90;99.90;;;;;;5063654;28;20490;-82
2022/10/17 08:49:46;;;;;;;10.30;4.40;;;18.00;99.90;;;;;;5062694;28;20452;-82
2022/10/17 08:52:20;;;;;;;7.47;4.03;;;18.00;99.90;;;;;;5063328;28;20442;-82
2022/10/17 08:54:48;;;;;;;7.70;3.70;;;18.10;99.90;;;;;;5062715;28;20681;-81
2022/10/17 08:57:17;;;;;;;5.90;4.40;;;18.20;99.90;;;;;;5062421;28;20469;-84
2022/10/17 08:59:47;;;;;;;5.00;4.43;;;18.30;99.90;;;;;;5062841;28;20455;-83
2022/10/17 09:02:42;;;;;;;5.80;4.83;;;18.40;99.90;;;;;;5063657;28;20494;-82
2022/10/17 09:05:36;;;;;;;5.73;4.23;;;18.50;99.90;;;;;;5063139;28;20453;-83
2022/10/17 09:08:12;;;;;;;10.70;4.17;;;18.70;99.90;;;;;;5058798;28;20480;-83
2022/10/17 09:10:54;;;;;;;4.63;3.97;;;18.80;99.90;;;;;;5063216;28;20460;-83
2022/10/17 09:13:32;;;;;;;6.00;4.00;;;18.90;99.90;;;;;;5061549;28;20528;-82
2022/10/17 09:16:14;;;;;;;6.13;3.87;;;19.10;99.90;;;;;;5042295;28;20563;-83
2022/10/17 09:18:54;;;;;;;4.83;4.20;;;19.20;99.90;;;;;;5042302;28;20459;-81
2022/10/17 09:21:25;;;;;;;7.53;4.13;;;19.20;99.90;;;;;;5042045;28;20915;-82
2022/10/17 09:23:56;;;;;;;6.03;5.43;;;19.20;99.90;;;;;;5049584;28;20838;-81
2022/10/17 09:26:23;;;;;;;6.50;3.83;;;19.30;99.90;;;;;;5062185;28;20467;-83
2022/10/17 09:28:54;;;;;;;8.53;3.83;;;19.30;99.90;;;;;;5062955;28;20808;-82
2022/10/17 09:31:25;;;;;;;7.83;3.73;;;19.40;99.90;;;;;;5063457;28;20491;-82
2022/10/17 09:33:56;;;;;;;10.60;3.63;;;19.40;99.90;;;;;;5062176;28;20463;-82
2022/10/17 09:36:27;;;;;;;7.30;5.13;;;19.50;99.90;;;;;;5062156;28;20490;-84
2022/10/17 09:38:56;;;;;;;7.63;3.53;;;19.50;99.90;;;;;;5061603;28;20466;-82
2022/10/17 09:41:30;;;;;;;3.57;3.10;;;19.60;99.90;;;;;;5062379;28;20484;-83
2022/10/17 09:43:58;;;;;;;5.47;3.07;;;19.70;99.90;;;;;;5061909;28;20458;-82
2022/10/17 09:46:30;;;;;;;6.30;3.70;;;19.90;99.90;;;;;;5063576;28;21019;-84
2022/10/17 09:49:01;;;;;;;5.47;3.93;;;20.10;99.90;;;;;;5061882;28;20465;-83
2022/10/17 09:51:29;;;;;;;6.20;3.43;;;20.10;99.90;;;;;;5062785;28;20448;-82
2022/10/17 09:54:01;;;;;;;8.00;3.87;;;20.20;99.90;;;;;;5062808;28;20450;-83
2022/10/17 09:56:28;;;;;;;5.80;3.10;;;20.30;99.90;;;;;;5062588;28;20475;-83
2022/10/17 09:58:57;;;;;;;5.40;3.30;;;20.20;99.90;;;;;;5062381;28;20454;-81
2022/10/17 10:01:27;;;;;;;6.90;3.63;;;20.20;99.90;;;;;;5062715;28;20582;-82
2022/10/17 10:07:02;;;;;;;5.70;3.33;;;20.20;99.90;;;;;;5166719;27;20334;-82
2022/10/17 10:09:31;;;;;;;5.90;3.70;;;20.00;99.90;;;;;;5119002;28;20454;-80
2022/10/17 10:12:00;;;;;;;7.20;3.93;;;20.00;99.90;;;;;;5121353;28;20444;-82
2022/10/17 10:14:32;;;;;;;3.13;2.80;;;19.80;99.90;;;;;;5139419;27;20457;-82
2022/10/17 10:17:00;;;;;;;5.73;3.47;;;19.80;99.90;;;;;;5139439;27;20971;-80
2022/10/17 10:19:30;;;;;;;5.13;3.00;;;19.80;99.90;;;;;;5137961;27;20453;-81
2022/10/17 10:22:00;;;;;;;3.60;2.80;;;19.80;99.90;;;;;;5136390;28;20449;-80
2022/10/17 10:24:28;;;;;;;8.37;3.30;;;19.70;99.90;;;;;;5138381;28;20461;-82
2022/10/17 10:26:57;;;;;;;4.00;3.10;;;19.70;99.90;;;;;;5138414;27;20471;-82
2022/10/17 10:29:29;;;;;;;4.80;3.50;;;19.80;99.90;;;;;;5138207;28;20950;-81
2022/10/17 10:31:58;;;;;;;6.60;3.70;;;19.80;99.90;;;;;;5135800;28;20492;-81
2022/10/17 10:34:28;;;;;;;5.40;3.30;;;19.70;99.90;;;;;;5118269;28;20893;-84
2022/10/17 10:37:03;;;;;;;7.40;3.37;;;19.70;99.90;;;;;;5119045;28;20465;-83
2022/10/17 10:39:43;;;;;;;4.97;3.73;;;19.70;99.90;;;;;;5117616;28;20985;-81
2022/10/17 10:42:24;;;;;;;5.60;3.13;;;19.70;99.90;;;;;;5121829;28;20456;-81
2022/10/17 10:44:53;;;;;;;4.83;3.13;;;19.70;99.90;;;;;;5138268;28;20481;-82
2022/10/17 10:47:23;;;;;;;7.80;3.57;;;19.70;99.90;;;;;;5138002;27;20464;-81
2022/10/17 10:50:06;;;;;;;4.03;3.00;;;19.80;99.90;;;;;;5138271;28;21088;-82
2022/10/17 10:52:41;;;;;;;3.83;3.43;;;19.90;99.90;;;;;;5130687;28;20892;-82
2022/10/17 10:55:22;;;;;;;5.70;3.43;;;19.90;99.90;;;;;;5117734;28;20440;-82
2022/10/17 10:57:54;;;;;;;6.70;3.23;;;20.00;99.90;;;;;;5117071;28;20477;-80
2022/10/17 11:00:24;;;;;;;6.60;3.10;;;20.00;99.90;;;;;;5117506;28;20824;-81
2022/10/17 11:02:58;;;;;;;5.33;3.43;;;20.00;99.90;;;;;;5126568;28;20540;-80
2022/10/17 11:05:36;;;;;;;9.97;3.10;;;19.90;99.90;;;;;;5138384;27;20486;-82
2022/10/17 11:08:11;;;;;;;8.80;3.57;;;20.00;99.90;;;;;;5138399;27;20555;-82
2022/10/17 11:10:44;;;;;;;6.30;3.27;;;20.10;99.90;;;;;;5139624;27;21169;-81
2022/10/17 11:13:15;;;;;;;6.50;3.20;;;20.10;99.90;;;;;;5126230;28;20540;-83
2022/10/17 11:15:46;;;;;;;11.10;5.03;;;20.00;99.90;;;;;;5118433;28;20452;-81
2022/10/17 11:18:22;;;;;;;6.73;3.80;;;20.00;99.90;;;;;;5103024;28;20472;-83
2022/10/17 11:20:54;;;;;;;6.73;3.43;;;19.90;99.90;;;;;;5104830;28;20442;-81
2022/10/17 11:23:28;;;;;;;6.17;3.90;;;19.90;99.90;;;;;;5119381;28;20460;-82
2022/10/17 11:25:59;;;;;;;5.50;3.53;;;19.90;99.90;;;;;;5083663;28;20508;-83
2022/10/17 11:28:26;;;;;;;3.77;3.23;;;19.80;99.90;;;;;;5083521;28;20471;-82
2022/10/17 11:30:57;;;;;;;10.30;3.70;;;19.80;99.90;;;;;;5083106;28;20447;-81
2022/10/17 11:33:30;;;;;;;5.77;3.90;;;19.90;99.90;;;;;;5114505;28;20454;-82
2022/10/17 11:36:03;;;;;;;6.73;3.87;;;20.00;99.90;;;;;;5124177;28;20826;-81
2022/10/17 11:38:41;;;;;;;8.07;4.43;;;20.00;99.90;;;;;;5124110;28;20445;-82
2022/10/17 11:41:13;;;;;;;8.10;3.90;;;20.10;99.90;;;;;;5124634;28;20534;-82
2022/10/17 11:43:46;;;;;;;9.17;4.30;;;20.10;99.90;;;;;;5104017;28;20479;-80
2022/10/17 11:46:17;;;;;;;7.20;3.47;;;20.20;99.90;;;;;;5103605;28;20491;-82
2022/10/17 11:48:55;;;;;;;8.33;3.87;;;20.30;99.90;;;;;;5102150;28;20970;-82
2022/10/17 11:51:22;;;;;;;6.93;3.90;;;20.40;99.90;;;;;;5102774;28;20975;-81
2022/10/17 11:53:55;;;;;;;6.30;3.23;;;20.40;99.90;;;;;;5083027;28;20462;-82
2022/10/17 11:56:29;;;;;;;5.73;4.50;;;20.50;99.90;;;;;;5082859;28;20439;-84
2022/10/17 11:59:07;;;;;;;6.93;3.37;;;20.40;99.90;;;;;;5083080;28;20443;-81
2022/10/17 12:01:38;;;;;;;9.50;3.97;;;20.50;99.90;;;;;;5086786;28;20458;-84
2022/10/17 12:04:17;;;;;;;7.13;2.70;;;20.60;99.90;;;;;;5123628;28;20822;-81
2022/10/17 12:06:53;;;;;;;6.53;3.20;;;20.70;99.90;;;;;;5122927;28;20477;-81
2022/10/17 12:09:30;;;;;;;5.43;3.30;;;20.80;99.90;;;;;;5122601;28;20468;-81
2022/10/17 12:11:59;;;;;;;6.03;3.53;;;20.70;99.90;;;;;;5118869;28;20517;-83
2022/10/17 12:14:38;;;;;;;5.50;3.30;;;20.70;99.90;;;;;;5103337;28;20453;-81
2022/10/17 12:17:06;;;;;;;5.30;3.40;;;20.70;99.90;;;;;;5102985;28;20530;-83
2022/10/17 12:19:35;;;;;;;9.10;3.40;;;20.60;99.90;;;;;;5101804;28;20476;-84
2022/10/17 12:22:18;;;;;;;4.10;3.17;;;20.50;99.90;;;;;;5107397;28;20890;-81
2022/10/17 12:24:55;;;;;;;7.00;3.30;;;20.40;99.90;;;;;;5122769;28;20449;-81
2022/10/17 12:27:36;;;;;;;11.07;3.77;;;20.30;99.90;;;;;;5123135;28;20549;-82
2022/10/17 12:30:07;;;;;;;5.10;3.50;;;20.30;99.90;;;;;;5121845;28;20459;-82
2022/10/17 12:32:34;;;;;;;9.13;4.00;;;20.30;99.90;;;;;;5113724;28;20450;-83
2022/10/17 12:35:01;;;;;;;6.10;3.80;;;20.30;99.90;;;;;;5102440;28;20457;-81
2022/10/17 12:38:00;;;;;;;4.50;3.13;;;20.10;99.90;;;;;;5101854;28;20466;-82
2022/10/17 12:40:53;;;;;;;8.60;3.90;;;20.10;99.90;;;;;;5101205;28;20442;-82
2022/10/17 12:43:48;;;;;;;4.63;3.80;;;20.10;99.90;;;;;;5116977;28;20449;-83
2022/10/17 12:46:54;;;;;;;5.87;3.13;;;20.00;99.90;;;;;;5122140;28;20950;-80
2022/10/17 12:49:39;;;;;;;6.83;3.87;;;20.10;99.90;;;;;;5122772;28;20456;-83
2022/10/17 12:52:19;;;;;;;5.43;3.40;;;20.00;99.90;;;;;;5116703;28;20536;-81
2022/10/17 12:54:50;;;;;;;6.83;3.80;;;20.00;99.90;;;;;;5102101;28;20446;-82
2022/10/17 12:57:22;;;;;;;7.13;3.70;;;19.90;99.90;;;;;;5102340;28;20462;-82
2022/10/17 12:59:49;;;;;;;5.47;3.67;;;19.90;99.90;;;;;;5102745;28;20474;-84
2022/10/17 13:02:20;;;;;;;7.63;3.23;;;19.90;99.90;;;;;;5107483;28;20457;-82
2022/10/17 13:04:48;;;;;;;3.80;3.43;;;19.80;99.90;;;;;;5121100;28;20457;-82
2022/10/17 13:07:20;;;;;;;4.90;3.90;;;19.80;99.90;;;;;;5120595;28;20496;-83